createdAt,value
2022-11-12T00:00:48.210Z,56.15
2022-11-12T00:03:34.627Z,56.83
2022-11-12T00:06:20.918Z,61.60
2022-11-12T00:09:08.859Z,64.85
2022-11-12T00:11:55.277Z,59.22
2022-11-12T00:14:41.703Z,63.42
2022-11-12T00:17:28.122Z,51.72
2022-11-12T00:20:14.842Z,53.75
2022-11-12T00:23:01.307Z,57.97
2022-11-12T00:25:49.243Z,55.50
2022-11-12T00:28:38.248Z,56.53
2022-11-12T00:31:25.247Z,54.65
2022-11-12T00:34:11.575Z,55.25
2022-11-12T00:36:57.892Z,57.13
2022-11-12T00:39:44.197Z,57.72
2022-11-12T00:42:31.916Z,54.63
2022-11-12T00:45:18.251Z,54.58
2022-11-12T00:48:04.790Z,57.20
2022-11-12T00:50:51.346Z,54.78
2022-11-12T00:53:37.975Z,58.92
2022-11-12T00:56:24.152Z,61.80
2022-11-12T00:59:12.031Z,60.15
2022-11-12T01:01:58.390Z,56.58
2022-11-12T01:04:44.689Z,53.70
2022-11-12T01:07:31.095Z,55.05
2022-11-12T01:10:17.534Z,56.67
2022-11-12T01:13:04.091Z,53.83
2022-11-12T01:15:51.872Z,56.53
2022-11-12T01:18:38.737Z,54.73
2022-11-12T01:21:26.135Z,54.95
2022-11-12T01:24:13.086Z,55.38
2022-11-12T01:26:59.417Z,54.85
2022-11-12T01:29:45.592Z,53.78
2022-11-12T01:32:35.948Z,55.65
2022-11-12T01:35:22.475Z,54.88
2022-11-12T01:38:08.849Z,54.45
2022-11-12T01:40:55.195Z,56.50
2022-11-12T01:43:41.502Z,52.28
2022-11-12T01:46:31.169Z,59.83
2022-11-12T01:49:22.950Z,54.50
2022-11-12T01:52:18.447Z,55.97
2022-11-12T01:55:09.018Z,52.60
2022-11-12T01:58:00.691Z,52.25
2022-11-12T02:00:49.004Z,54.47
2022-11-12T02:03:35.777Z,55.67
2022-11-12T02:06:25.117Z,54.92
2022-11-12T02:09:11.708Z,54.75
2022-11-12T02:12:00.662Z,58.53
2022-11-12T02:14:46.260Z,54.53
2022-11-12T02:17:32.779Z,52.20
2022-11-12T02:20:19.171Z,56.55
2022-11-12T02:23:08.506Z,54.17
2022-11-12T02:25:54.935Z,53.92
2022-11-12T02:28:41.818Z,49.22
2022-11-12T02:31:28.099Z,48.92
2022-11-12T02:34:15.008Z,54.47
2022-11-12T02:37:01.324Z,52.72
2022-11-12T02:39:49.083Z,51.70
2022-11-12T02:42:35.565Z,55.25
2022-11-12T02:45:22.473Z,52.63
2022-11-12T02:48:08.716Z,52.60
2022-11-12T02:50:55.012Z,48.53
2022-11-12T02:53:41.559Z,49.47
2022-11-12T02:56:29.189Z,49.95
2022-11-12T02:59:15.448Z,53.20
2022-11-12T03:02:01.813Z,48.33
2022-11-12T03:04:49.613Z,50.42
2022-11-12T03:07:36.405Z,54.42
2022-11-12T03:10:22.753Z,51.78
2022-11-12T03:13:11.784Z,55.45
2022-11-12T03:16:00.863Z,51.45
2022-11-12T03:21:34.067Z,50.63
2022-11-12T03:24:20.328Z,52.25
2022-11-12T03:27:06.517Z,53.40
2022-11-12T03:29:54.379Z,55.90
2022-11-12T03:32:40.668Z,53.65
2022-11-12T03:35:27.876Z,51.50
2022-11-12T03:38:14.436Z,53.15
2022-11-12T03:41:00.760Z,51.55
2022-11-12T03:43:47.648Z,52.92
2022-11-12T03:46:38.891Z,54.72
2022-11-12T03:49:28.444Z,53.85
2022-11-12T03:52:14.916Z,55.20
2022-11-12T03:55:01.093Z,50.75
2022-11-12T03:57:49.284Z,56.35
2022-11-12T04:00:35.844Z,50.72
2022-11-12T04:03:23.657Z,53.33
2022-11-12T04:06:27.395Z,52.33
2022-11-12T04:09:14.195Z,54.35
2022-11-12T04:12:20.764Z,50.30
2022-11-12T04:15:07.737Z,50.92
2022-11-12T04:18:11.382Z,49.00
2022-11-12T04:21:15.942Z,49.58
2022-11-12T04:24:02.328Z,49.72
2022-11-12T04:26:47.956Z,47.47
2022-11-12T04:29:51.561Z,45.47
2022-11-12T04:32:40.272Z,47.78
2022-11-12T04:35:28.410Z,50.60
2022-11-12T04:38:16.402Z,50.10
2022-11-12T04:41:28.431Z,46.38
2022-11-12T04:44:32.678Z,48.10
2022-11-12T04:47:19.329Z,45.13
2022-11-12T04:50:08.036Z,47.10
2022-11-12T04:52:54.409Z,47.03
2022-11-12T04:55:42.166Z,50.05
2022-11-12T04:58:29.116Z,45.50
2022-11-12T05:01:16.294Z,51.28
2022-11-12T05:04:03.104Z,43.90
2022-11-12T05:06:52.471Z,44.90
2022-11-12T05:09:40.053Z,45.50
2022-11-12T05:12:28.248Z,49.00
2022-11-12T05:15:14.863Z,42.15
2022-11-12T05:18:01.630Z,45.15
2022-11-12T05:20:48.003Z,40.17
2022-11-12T05:23:34.623Z,43.35
2022-11-12T05:26:20.867Z,41.33
2022-11-12T05:29:09.149Z,41.88
2022-11-12T05:31:55.532Z,45.03
2022-11-12T05:34:42.130Z,43.70
2022-11-12T05:37:28.814Z,43.58
2022-11-12T05:40:15.388Z,45.42
2022-11-12T05:43:02.051Z,43.22
2022-11-12T05:45:49.697Z,44.25
2022-11-12T05:48:35.828Z,44.67
2022-11-12T05:51:22.150Z,42.47
2022-11-12T05:54:08.788Z,46.30
2022-11-12T05:56:55.362Z,41.28
2022-11-12T05:59:41.599Z,46.53
2022-11-12T06:02:29.454Z,40.90
2022-11-12T06:05:16.378Z,47.00
2022-11-12T06:08:04.011Z,40.88
2022-11-12T06:10:50.944Z,41.47
2022-11-12T06:13:37.524Z,40.25
2022-11-12T06:16:24.626Z,41.05
2022-11-12T06:19:12.529Z,44.67
2022-11-12T06:21:59.226Z,40.03
2022-11-12T06:24:46.108Z,41.13
2022-11-12T06:27:32.797Z,44.85
2022-11-12T06:30:23.012Z,49.78
2022-11-12T06:33:11.969Z,44.17
2022-11-12T06:36:03.076Z,45.95
2022-11-12T06:38:49.969Z,44.20
2022-11-12T06:41:36.475Z,45.42
2022-11-12T06:44:22.865Z,46.78
2022-11-12T06:47:09.935Z,45.15
2022-11-12T06:49:56.559Z,41.53
2022-11-12T06:52:44.512Z,42.10
2022-11-12T06:55:30.940Z,38.00
2022-11-12T06:58:17.277Z,45.38
2022-11-12T07:01:11.796Z,39.05
2022-11-12T07:03:59.108Z,40.65
2022-11-12T07:06:45.830Z,40.17
2022-11-12T07:09:33.980Z,39.83
2022-11-12T07:12:20.616Z,42.80
2022-11-12T07:15:08.080Z,38.72
2022-11-12T07:17:54.344Z,35.97
2022-11-12T07:20:41.187Z,33.10
2022-11-12T07:23:28.475Z,34.85
2022-11-12T07:26:17.962Z,32.92
2022-11-12T07:29:04.559Z,35.53
2022-11-12T07:31:50.960Z,33.08
2022-11-12T07:34:37.319Z,39.08
2022-11-12T07:37:23.519Z,34.05
2022-11-12T07:40:10.585Z,36.58
2022-11-12T07:43:00.129Z,30.23
2022-11-12T07:45:46.549Z,30.52
2022-11-12T07:48:33.427Z,31.05
2022-11-12T07:51:22.376Z,28.80
2022-11-12T07:54:09.045Z,30.38
2022-11-12T07:56:55.556Z,31.70
2022-11-12T07:59:46.139Z,33.90
2022-11-12T08:02:33.164Z,27.33
2022-11-12T08:05:21.533Z,28.00
2022-11-12T08:08:08.523Z,28.35
2022-11-12T08:10:56.609Z,27.17
2022-11-12T08:13:43.171Z,29.30
2022-11-12T08:16:30.972Z,28.15
2022-11-12T08:19:17.243Z,26.95
2022-11-12T08:22:04.240Z,28.48
2022-11-12T08:24:50.737Z,27.00
2022-11-12T08:27:37.141Z,27.67
2022-11-12T08:30:23.447Z,26.30
2022-11-12T08:33:11.224Z,21.45
2022-11-12T08:35:59.108Z,28.63
2022-11-12T08:38:45.485Z,28.73
2022-11-12T08:41:32.044Z,25.45
2022-11-12T08:44:18.263Z,24.77
2022-11-12T08:47:04.742Z,24.42
2022-11-12T08:49:52.645Z,27.10
2022-11-12T08:52:39.407Z,35.75
2022-11-12T08:55:25.751Z,25.58
2022-11-12T08:58:12.135Z,23.77
2022-11-12T09:01:04.611Z,23.27
2022-11-12T09:03:51.219Z,27.58
2022-11-12T09:06:38.890Z,22.17
2022-11-12T09:09:25.758Z,26.92
2022-11-12T09:12:19.648Z,26.35
2022-11-12T09:15:36.378Z,28.25
2022-11-12T09:18:15.230Z,26.75
2022-11-12T09:21:03.059Z,24.20
2022-11-12T09:23:51.078Z,25.02
2022-11-12T09:26:37.458Z,24.13
2022-11-12T09:29:23.820Z,23.92
2022-11-12T09:32:10.449Z,23.35
2022-11-12T09:34:56.839Z,24.73
2022-11-12T09:37:43.420Z,25.67
2022-11-12T09:40:42.768Z,21.90
2022-11-12T09:43:32.130Z,25.40
2022-11-12T09:46:40.174Z,20.77
2022-11-12T09:52:20.851Z,24.10
2022-11-12T09:55:15.216Z,20.92
2022-11-12T09:58:03.831Z,25.17
2022-11-12T10:00:56.199Z,34.38
2022-11-12T10:03:50.246Z,23.33
2022-11-12T10:06:53.266Z,26.65
2022-11-12T10:09:52.674Z,23.58
2022-11-12T10:12:52.405Z,24.17
2022-11-12T10:16:07.199Z,29.17
2022-11-12T10:19:22.486Z,24.02
2022-11-12T10:22:24.480Z,23.52
2022-11-12T10:25:19.952Z,25.98
2022-11-12T10:28:26.785Z,25.73
2022-11-12T10:31:20.640Z,23.92
2022-11-12T10:34:17.208Z,22.77
2022-11-12T10:37:07.118Z,22.33
2022-11-12T10:39:53.970Z,25.30
2022-11-12T10:42:57.847Z,24.88
2022-11-12T10:48:59.920Z,21.20
2022-11-12T10:51:56.298Z,21.00
2022-11-12T10:54:42.666Z,18.10
2022-11-12T10:57:29.677Z,22.17
2022-11-12T11:00:19.888Z,19.80
2022-11-12T11:03:24.296Z,19.40
2022-11-12T11:06:25.644Z,17.55
2022-11-12T11:09:18.130Z,19.40
2022-11-12T11:12:25.501Z,19.08
2022-11-12T11:15:21.766Z,18.50
2022-11-12T11:18:12.148Z,17.90
2022-11-12T11:21:29.690Z,19.02
2022-11-12T11:24:41.627Z,16.42
2022-11-12T11:27:38.888Z,19.15
2022-11-12T11:30:33.116Z,17.98
2022-11-12T11:33:32.200Z,20.30
2022-11-12T11:36:32.855Z,17.35
2022-11-12T11:39:36.378Z,13.88
2022-11-12T11:42:49.559Z,13.77
2022-11-12T11:45:53.973Z,14.60
2022-11-12T11:48:51.834Z,15.13
2022-11-12T11:51:52.176Z,12.80
2022-11-12T11:55:00.434Z,13.63
2022-11-12T11:57:59.264Z,11.45
2022-11-12T12:00:57.505Z,12.63
2022-11-12T12:03:58.148Z,13.35
2022-11-12T12:06:55.129Z,14.07
2022-11-12T12:09:49.925Z,13.63
2022-11-12T12:12:49.966Z,13.68
2022-11-12T12:15:47.537Z,12.90
2022-11-12T12:18:43.996Z,14.23
2022-11-12T12:21:33.070Z,13.88
2022-11-12T12:24:24.175Z,14.63
2022-11-12T12:27:15.700Z,16.10
2022-11-12T12:30:21.526Z,17.77
2022-11-12T12:33:24.230Z,14.57
2022-11-12T12:36:13.981Z,14.10
2022-11-12T12:39:14.337Z,13.85
2022-11-12T12:42:15.670Z,13.77
2022-11-12T12:45:19.963Z,12.85
2022-11-12T12:48:10.131Z,13.38
2022-11-12T12:50:57.078Z,12.73
2022-11-12T12:53:43.470Z,11.48
2022-11-12T12:56:48.325Z,12.70
2022-11-12T12:59:36.526Z,13.77
2022-11-12T13:02:24.586Z,13.18
2022-11-12T13:05:26.065Z,13.05
2022-11-12T13:08:15.235Z,15.30
2022-11-12T13:11:01.807Z,13.13
2022-11-12T13:13:48.044Z,13.65
2022-11-12T13:17:01.276Z,13.15
2022-11-12T13:20:11.749Z,15.10
2022-11-12T13:23:00.783Z,14.80
2022-11-12T13:25:47.337Z,12.88
2022-11-12T13:28:33.530Z,12.35
2022-11-12T13:31:28.898Z,11.57
2022-11-12T13:34:23.180Z,14.07
2022-11-12T13:37:20.254Z,12.70
2022-11-12T13:40:13.161Z,14.30
2022-11-12T13:43:04.910Z,12.10
2022-11-12T13:45:54.841Z,11.77
2022-11-12T13:48:44.611Z,15.32
2022-11-12T13:51:40.663Z,14.30
2022-11-12T13:54:34.380Z,13.93
2022-11-12T13:57:29.407Z,13.82
2022-11-12T14:00:26.342Z,13.85
2022-11-12T14:03:24.167Z,15.00
2022-11-12T14:06:17.469Z,14.25
2022-11-12T14:09:32.401Z,13.80
2022-11-12T14:12:40.542Z,14.15
2022-11-12T14:15:39.906Z,13.27
2022-11-12T14:18:33.653Z,15.35
2022-11-12T14:21:20.543Z,15.18
2022-11-12T14:24:11.805Z,14.70
2022-11-12T14:26:59.701Z,18.92
2022-11-12T14:29:46.330Z,14.05
2022-11-12T14:32:37.004Z,18.10
2022-11-12T14:35:33.652Z,15.68
2022-11-12T14:38:22.819Z,14.75
2022-11-12T14:41:11.519Z,16.73
2022-11-12T14:44:12.598Z,15.32
2022-11-12T14:47:04.018Z,16.83
2022-11-12T14:50:08.518Z,16.48
2022-11-12T14:53:04.513Z,15.20
2022-11-12T14:55:54.460Z,13.73
2022-11-12T14:58:41.936Z,17.17
2022-11-12T15:04:43.631Z,13.95
2022-11-12T15:07:33.530Z,13.63
2022-11-12T15:10:32.290Z,13.35
2022-11-12T15:16:12.716Z,14.77
2022-11-12T15:19:18.713Z,19.20
2022-11-12T15:22:05.572Z,14.25
2022-11-12T15:24:52.327Z,14.63
2022-11-12T15:27:41.152Z,14.85
2022-11-12T15:30:30.024Z,13.52
2022-11-12T15:33:23.114Z,13.30
2022-11-12T15:36:18.242Z,13.30
2022-11-12T15:39:05.101Z,12.23
2022-11-12T15:41:59.221Z,13.35
2022-11-12T15:44:46.931Z,15.13
2022-11-12T15:47:34.522Z,16.27
2022-11-12T15:50:22.742Z,11.52
2022-11-12T15:53:10.690Z,12.70
2022-11-12T15:55:58.082Z,13.27
2022-11-12T15:58:47.790Z,12.07
2022-11-12T16:01:34.163Z,16.20
2022-11-12T16:04:20.699Z,14.35
2022-11-12T16:07:07.201Z,13.85
2022-11-12T16:09:58.085Z,12.15
2022-11-12T16:12:45.643Z,14.68
2022-11-12T16:15:32.642Z,17.13
2022-11-12T16:18:19.316Z,15.80
2022-11-12T16:21:06.631Z,16.60
2022-11-12T16:23:53.188Z,17.08
2022-11-12T16:26:41.607Z,16.52
2022-11-12T16:29:28.141Z,16.48
2022-11-12T16:32:15.361Z,19.40
2022-11-12T16:35:01.835Z,21.52
2022-11-12T16:37:48.918Z,19.60
2022-11-12T16:40:35.146Z,22.35
2022-11-12T16:43:22.817Z,26.25
2022-11-12T16:46:30.960Z,18.52
2022-11-12T16:49:17.627Z,18.67
2022-11-12T16:52:03.780Z,18.63
2022-11-12T16:54:54.338Z,17.38
2022-11-12T16:57:47.099Z,15.70
2022-11-12T17:00:50.033Z,14.10
2022-11-12T17:03:39.241Z,17.88
2022-11-12T17:06:33.937Z,16.85
2022-11-12T17:09:20.532Z,19.58
2022-11-12T17:12:07.811Z,19.00
2022-11-12T17:15:05.646Z,21.73
2022-11-12T17:17:55.848Z,21.45
2022-11-12T17:20:48.338Z,23.13
2022-11-12T17:23:43.900Z,18.77
2022-11-12T17:26:41.379Z,18.90
2022-11-12T17:29:28.480Z,15.80
2022-11-12T17:32:17.462Z,18.58
2022-11-12T17:35:05.867Z,19.58
2022-11-12T17:37:52.381Z,20.38
2022-11-12T17:40:39.120Z,18.55
2022-11-12T17:43:26.244Z,19.60
2022-11-12T17:46:15.687Z,19.17
2022-11-12T17:49:02.896Z,21.80
2022-11-12T17:51:50.843Z,23.25
2022-11-12T17:54:37.392Z,18.52
2022-11-12T17:57:30.989Z,21.90
2022-11-12T18:00:18.653Z,20.08
2022-11-12T18:03:05.579Z,20.23
2022-11-12T18:05:59.006Z,19.33
2022-11-12T18:08:46.855Z,20.95
2022-11-12T18:11:42.748Z,20.30
2022-11-12T18:14:29.530Z,20.25
2022-11-12T18:17:15.901Z,21.05
2022-11-12T18:20:02.698Z,20.92
2022-11-12T18:22:49.776Z,18.73
2022-11-12T18:25:39.256Z,18.88
2022-11-12T18:28:25.573Z,18.65
2022-11-12T18:31:13.788Z,15.40
2022-11-12T18:34:00.337Z,19.95
2022-11-12T18:36:46.591Z,17.45
2022-11-12T18:39:38.260Z,20.58
2022-11-12T18:42:39.449Z,18.73
2022-11-12T18:45:48.712Z,18.90
2022-11-12T18:48:39.279Z,17.52
2022-11-12T18:51:36.506Z,16.85
2022-11-12T18:54:27.800Z,15.55
2022-11-12T18:57:20.578Z,14.70
2022-11-12T19:00:10.084Z,16.55
2022-11-12T19:03:00.407Z,16.00
2022-11-12T19:05:47.469Z,15.65
2022-11-12T19:08:42.664Z,27.25
2022-11-12T19:11:29.457Z,15.35
2022-11-12T19:14:17.784Z,15.32
2022-11-12T19:17:05.593Z,14.27
2022-11-12T19:19:58.114Z,15.63
2022-11-12T19:22:44.790Z,16.60
2022-11-12T19:25:31.290Z,20.00
2022-11-12T19:28:19.781Z,20.17
2022-11-12T19:31:14.696Z,23.67
2022-11-12T19:34:02.828Z,19.70
2022-11-12T19:37:26.641Z,21.63
2022-11-12T19:40:05.745Z,23.25
2022-11-12T19:42:52.448Z,23.58
2022-11-12T19:45:38.863Z,23.63
2022-11-12T19:48:25.896Z,32.17
2022-11-12T19:51:14.369Z,32.47
2022-11-12T19:54:00.984Z,20.95
2022-11-12T19:56:47.379Z,19.75
2022-11-12T19:59:36.954Z,18.48
2022-11-12T20:02:29.011Z,15.35
2022-11-12T20:05:18.296Z,17.08
2022-11-12T20:08:06.355Z,18.42
2022-11-12T20:10:55.940Z,18.17
2022-11-12T20:13:42.598Z,15.48
2022-11-12T20:16:28.931Z,16.25
2022-11-12T20:19:15.129Z,16.63
2022-11-12T20:22:01.586Z,15.88
2022-11-12T20:24:49.779Z,15.75
2022-11-12T20:27:37.060Z,14.77
2022-11-12T20:30:26.202Z,16.42
2022-11-12T20:33:16.778Z,13.65
2022-11-12T20:36:10.757Z,16.90
2022-11-12T20:38:57.253Z,18.23
2022-11-12T20:41:48.606Z,15.95
2022-11-12T20:44:37.506Z,22.77
2022-11-12T20:47:27.097Z,23.23
2022-11-12T20:50:15.138Z,18.30
2022-11-12T20:53:02.030Z,24.23
2022-11-12T20:55:50.171Z,20.08
2022-11-12T20:58:38.377Z,16.27
2022-11-12T21:01:26.878Z,14.90
2022-11-12T21:04:13.587Z,18.95
2022-11-12T21:07:05.067Z,17.42
2022-11-12T21:09:51.799Z,16.40
2022-11-12T21:12:38.139Z,18.27
2022-11-12T21:15:26.061Z,16.60
2022-11-12T21:18:12.420Z,19.92
2022-11-12T21:21:03.579Z,19.45
2022-11-12T21:23:51.162Z,19.73
2022-11-12T21:26:37.950Z,20.10
2022-11-12T21:29:25.302Z,20.83
2022-11-12T21:32:13.006Z,20.45
2022-11-12T21:34:59.383Z,25.40
2022-11-12T21:37:45.638Z,19.33
2022-11-12T21:40:32.015Z,21.35
2022-11-12T21:43:21.412Z,17.75
2022-11-12T21:46:09.001Z,18.75
2022-11-12T21:48:57.892Z,20.58
2022-11-12T21:51:44.508Z,16.35
2022-11-12T21:54:30.747Z,17.40
2022-11-12T21:57:18.930Z,18.90
2022-11-12T22:00:39.074Z,17.38
2022-11-12T22:03:12.684Z,16.83
2022-11-12T22:06:02.013Z,19.25
2022-11-12T22:08:51.965Z,18.08
2022-11-12T22:11:38.581Z,16.30
2022-11-12T22:14:24.793Z,18.33
2022-11-12T22:17:11.312Z,16.48
2022-11-12T22:19:57.543Z,16.20
2022-11-12T22:22:45.183Z,15.93
2022-11-12T22:25:32.101Z,18.52
2022-11-12T22:28:18.380Z,15.10
2022-11-12T22:31:05.211Z,16.90
2022-11-12T22:33:51.999Z,17.17
2022-11-12T22:36:38.498Z,16.30
2022-11-12T22:39:26.591Z,19.42
2022-11-12T22:42:12.988Z,17.20
2022-11-12T22:44:59.305Z,16.33
2022-11-12T22:47:45.639Z,15.50
2022-11-12T22:50:32.094Z,16.77
2022-11-12T22:53:19.069Z,16.88
2022-11-12T22:56:09.185Z,16.90
2022-11-12T22:58:56.382Z,19.52
2022-11-12T23:01:44.126Z,18.17
2022-11-12T23:04:30.978Z,16.08
2022-11-12T23:07:17.723Z,16.50
2022-11-12T23:10:04.668Z,16.67
2022-11-12T23:12:52.562Z,14.35
2022-11-12T23:15:39.039Z,14.85
2022-11-12T23:18:25.908Z,16.67
2022-11-12T23:21:17.915Z,14.73
2022-11-12T23:24:04.547Z,16.20
2022-11-12T23:26:51.042Z,21.25
2022-11-12T23:29:38.691Z,23.13
2022-11-12T23:32:25.098Z,15.88
2022-11-12T23:35:11.455Z,17.17
2022-11-12T23:37:57.756Z,15.43
2022-11-12T23:40:53.683Z,15.00
2022-11-12T23:43:40.202Z,13.50
2022-11-12T23:46:27.962Z,15.27
2022-11-12T23:49:14.309Z,15.57
2022-11-12T23:52:00.677Z,13.43
2022-11-12T23:54:47.122Z,15.80
2022-11-12T23:57:33.968Z,18.35
